createdAt,value
2022-10-05T00:02:52.735Z,20.71
2022-10-05T00:07:57.873Z,20.67
2022-10-05T00:12:59.703Z,20.64
2022-10-05T00:18:03.187Z,20.59
2022-10-05T00:23:10.992Z,20.56
2022-10-05T00:28:34.613Z,20.53
2022-10-05T00:33:36.476Z,20.51
2022-10-05T00:38:38.384Z,20.50
2022-10-05T00:44:19.774Z,20.50
2022-10-05T00:49:24.517Z,20.49
2022-10-05T00:54:54.716Z,20.46
2022-10-05T01:05:29.925Z,20.40
2022-10-05T01:10:43.993Z,20.35
2022-10-05T01:15:51.887Z,20.32
2022-10-05T01:21:24.651Z,20.27
2022-10-05T01:27:01.918Z,20.20
2022-10-05T01:32:30.327Z,20.17
2022-10-05T01:37:45.933Z,20.11
2022-10-05T01:43:18.968Z,20.06
2022-10-05T01:48:57.070Z,20.01
2022-10-05T01:54:02.033Z,19.97
2022-10-05T01:59:20.355Z,19.94
2022-10-05T02:05:01.107Z,19.89
2022-10-05T02:10:05.341Z,19.86
2022-10-05T02:15:23.338Z,19.81
2022-10-05T02:20:30.523Z,19.73
2022-10-05T02:25:38.873Z,19.66
2022-10-05T02:30:50.433Z,19.61
2022-10-05T02:35:53.049Z,19.55
2022-10-05T02:41:28.649Z,19.52
2022-10-05T02:47:05.570Z,19.47
2022-10-05T02:52:18.728Z,19.46
2022-10-05T02:57:42.755Z,19.46
2022-10-05T03:02:59.379Z,19.44
2022-10-05T03:08:20.138Z,19.42
2022-10-05T03:13:45.632Z,19.39
2022-10-05T03:19:06.957Z,19.35
2022-10-05T03:24:27.334Z,19.34
2022-10-05T03:29:50.831Z,19.31
2022-10-05T03:35:14.180Z,19.29
2022-10-05T03:40:36.739Z,19.28
2022-10-05T03:45:45.195Z,19.26
2022-10-05T03:50:55.765Z,19.22
2022-10-05T03:56:14.825Z,19.15
2022-10-05T04:01:22.730Z,19.12
2022-10-05T04:06:42.122Z,19.08
2022-10-05T04:11:51.021Z,19.06
2022-10-05T04:17:21.785Z,19.04
2022-10-05T04:22:33.751Z,19.03
2022-10-05T04:27:48.997Z,18.97
2022-10-05T04:32:54.921Z,18.94
2022-10-05T04:38:33.498Z,18.92
2022-10-05T04:44:00.240Z,18.90
2022-10-05T04:49:20.457Z,18.86
2022-10-05T04:54:52.784Z,18.85
2022-10-05T05:00:05.828Z,18.84
2022-10-05T05:05:28.602Z,18.81
2022-10-05T05:10:40.909Z,18.81
2022-10-05T05:16:06.975Z,18.78
2022-10-05T05:21:38.044Z,18.77
2022-10-05T05:27:11.740Z,18.76
2022-10-05T05:32:41.834Z,18.71
2022-10-05T05:37:58.654Z,18.66
2022-10-05T05:43:07.295Z,18.65
2022-10-05T05:48:19.191Z,18.65
2022-10-05T05:53:28.489Z,18.65
2022-10-05T05:58:45.847Z,18.66
2022-10-05T06:04:02.850Z,18.67
2022-10-05T06:09:14.475Z,18.67
2022-10-05T06:14:44.951Z,18.69
2022-10-05T06:19:49.059Z,18.71
2022-10-05T06:25:12.697Z,18.73
2022-10-05T06:30:18.475Z,18.74
2022-10-05T06:36:06.602Z,18.77
2022-10-05T06:41:21.265Z,18.83
2022-10-05T06:46:38.848Z,18.89
2022-10-05T06:51:58.381Z,18.93
2022-10-05T06:57:19.472Z,19.37
2022-10-05T07:02:32.518Z,20.25
2022-10-05T07:07:53.751Z,21.16
2022-10-05T07:13:08.152Z,21.93
2022-10-05T07:18:48.387Z,22.52
2022-10-05T07:24:09.204Z,23.07
2022-10-05T07:29:22.831Z,23.49
2022-10-05T07:35:04.541Z,23.80
2022-10-05T07:40:12.165Z,24.13
2022-10-05T07:45:17.154Z,24.36
2022-10-05T07:50:23.309Z,24.61
2022-10-05T07:55:45.179Z,24.74
2022-10-05T08:01:01.990Z,24.95
2022-10-05T08:06:10.339Z,25.07
2022-10-05T08:11:12.547Z,24.67
2022-10-05T08:16:16.867Z,24.19
2022-10-05T08:21:36.496Z,23.81
2022-10-05T08:27:00.028Z,23.52
2022-10-05T08:32:06.787Z,23.27
2022-10-05T08:37:18.819Z,23.15
2022-10-05T08:42:26.579Z,23.15
2022-10-05T08:47:37.686Z,23.13
2022-10-05T08:53:04.552Z,23.18
2022-10-05T08:58:52.739Z,23.23
2022-10-05T09:04:19.463Z,23.29
2022-10-05T09:09:47.493Z,23.55
2022-10-05T09:15:25.530Z,23.66
2022-10-05T09:21:02.949Z,23.90
2022-10-05T09:26:23.281Z,23.90
2022-10-05T09:31:53.457Z,24.23
2022-10-05T09:37:26.530Z,24.77
2022-10-05T09:42:40.603Z,25.01
2022-10-05T09:48:03.691Z,25.37
2022-10-05T09:53:24.422Z,25.78
2022-10-05T09:58:49.603Z,26.08
2022-10-05T10:04:10.309Z,26.39
2022-10-05T10:09:38.816Z,26.58
2022-10-05T10:15:18.319Z,26.77
2022-10-05T10:20:23.233Z,27.02
2022-10-05T10:25:31.853Z,27.12
2022-10-05T10:30:58.713Z,27.28
2022-10-05T10:36:32.911Z,27.21
2022-10-05T10:41:53.386Z,26.81
2022-10-05T10:47:18.320Z,26.87
2022-10-05T10:53:03.709Z,26.94
2022-10-05T10:58:38.406Z,27.17
2022-10-05T11:04:23.228Z,26.73
2022-10-05T11:09:38.282Z,26.64
2022-10-05T11:14:49.856Z,26.90
2022-10-05T11:20:35.291Z,26.70
2022-10-05T11:25:50.439Z,26.62
2022-10-05T11:31:26.288Z,26.90
2022-10-05T11:36:56.816Z,27.08
2022-10-05T11:42:13.385Z,27.25
2022-10-05T11:47:37.335Z,26.94
2022-10-05T11:52:47.061Z,26.61
2022-10-05T11:57:51.848Z,26.51
2022-10-05T12:03:23.686Z,26.74
2022-10-05T12:08:36.876Z,26.83
2022-10-05T12:14:01.528Z,26.74
2022-10-05T12:19:13.615Z,26.66
2022-10-05T12:24:27.152Z,26.10
2022-10-05T12:29:52.531Z,25.63
2022-10-05T12:35:04.744Z,25.36
2022-10-05T12:40:18.879Z,25.37
2022-10-05T12:45:37.665Z,25.51
2022-10-05T12:50:43.384Z,25.74
2022-10-05T12:56:04.158Z,25.99
2022-10-05T13:01:14.957Z,26.14
2022-10-05T13:06:33.694Z,25.92
2022-10-05T13:11:58.777Z,26.17
2022-10-05T13:17:12.544Z,25.71
2022-10-05T13:22:42.593Z,25.54
2022-10-05T13:27:52.609Z,25.55
2022-10-05T13:33:18.127Z,25.51
2022-10-05T13:38:43.080Z,25.12
2022-10-05T13:44:20.094Z,25.15
2022-10-05T13:49:31.997Z,25.51
2022-10-05T13:54:51.001Z,25.78
2022-10-05T14:00:01.561Z,25.56
2022-10-05T14:05:32.042Z,25.50
2022-10-05T14:10:39.979Z,25.47
2022-10-05T14:15:42.473Z,25.37
2022-10-05T14:21:18.267Z,25.42
2022-10-05T14:26:25.979Z,25.25
2022-10-05T14:31:37.001Z,25.09
2022-10-05T14:36:44.078Z,24.96
2022-10-05T14:41:49.191Z,25.06
2022-10-05T14:46:58.930Z,24.88
2022-10-05T14:52:21.849Z,24.74
2022-10-05T14:57:45.906Z,24.82
2022-10-05T15:03:22.829Z,24.76
2022-10-05T15:08:42.643Z,24.71
2022-10-05T15:13:48.675Z,24.55
2022-10-05T15:18:59.797Z,24.51
2022-10-05T15:24:41.267Z,24.49
2022-10-05T15:29:59.975Z,24.58
2022-10-05T15:35:24.471Z,24.62
2022-10-05T15:40:44.050Z,24.62
2022-10-05T15:46:04.271Z,24.66
2022-10-05T15:51:24.734Z,24.57
2022-10-05T15:56:34.309Z,24.61
2022-10-05T16:01:49.694Z,24.53
2022-10-05T16:07:19.692Z,24.49
2022-10-05T16:12:40.244Z,24.58
2022-10-05T16:18:01.537Z,24.40
2022-10-05T16:23:31.152Z,24.30
2022-10-05T16:28:53.018Z,24.30
2022-10-05T16:34:17.333Z,24.25
2022-10-05T16:39:44.930Z,24.11
2022-10-05T16:45:09.874Z,24.02
2022-10-05T16:50:20.983Z,23.93
2022-10-05T16:55:38.924Z,23.81
2022-10-05T17:01:16.430Z,23.77
2022-10-05T17:06:32.255Z,23.65
2022-10-05T17:11:34.288Z,23.60
2022-10-05T17:16:54.826Z,23.56
2022-10-05T17:22:15.594Z,23.49
2022-10-05T17:27:29.393Z,23.41
2022-10-05T17:32:36.871Z,23.38
2022-10-05T17:37:41.732Z,23.32
2022-10-05T17:42:43.730Z,23.29
2022-10-05T17:47:58.848Z,23.24
2022-10-05T17:53:40.844Z,23.21
2022-10-05T17:59:04.816Z,23.17
2022-10-05T18:04:12.462Z,23.12
2022-10-05T18:09:17.025Z,23.11
2022-10-05T18:14:27.130Z,23.07
2022-10-05T18:19:32.568Z,23.03
2022-10-05T18:25:15.920Z,23.01
2022-10-05T18:30:21.863Z,22.97
2022-10-05T18:35:46.889Z,22.94
2022-10-05T18:41:10.331Z,22.91
2022-10-05T18:46:15.182Z,22.88
2022-10-05T18:51:54.100Z,22.85
2022-10-05T18:56:55.989Z,22.82
2022-10-05T19:02:23.416Z,22.81
2022-10-05T19:07:46.168Z,22.79
2022-10-05T19:13:06.636Z,22.76
2022-10-05T19:18:23.941Z,22.74
2022-10-05T19:23:42.473Z,22.72
2022-10-05T19:28:44.394Z,22.72
2022-10-05T19:34:30.621Z,22.72
2022-10-05T19:39:58.814Z,22.73
2022-10-05T19:45:21.495Z,22.73
2022-10-05T19:50:23.465Z,22.73
2022-10-05T19:55:31.910Z,22.75
2022-10-05T20:00:35.474Z,22.75
2022-10-05T20:05:37.737Z,22.74
2022-10-05T20:10:39.864Z,22.74
2022-10-05T20:16:36.152Z,22.71
2022-10-05T20:21:47.562Z,22.69
2022-10-05T20:27:09.528Z,22.68
2022-10-05T20:32:18.079Z,22.66
2022-10-05T20:37:20.205Z,22.64
2022-10-05T20:42:24.021Z,22.60
2022-10-05T20:47:26.801Z,22.59
2022-10-05T20:52:29.446Z,22.53
2022-10-05T20:57:45.466Z,22.46
2022-10-05T21:03:18.722Z,22.37
2022-10-05T21:08:20.623Z,22.28
2022-10-05T21:17:09.613Z,22.12
2022-10-05T21:22:12.128Z,22.06
2022-10-05T21:27:26.188Z,22.00
2022-10-05T21:32:28.351Z,21.94
2022-10-05T21:37:30.242Z,21.90
2022-10-05T21:42:32.359Z,21.86
2022-10-05T21:47:34.742Z,21.81
2022-10-05T21:52:36.888Z,21.78
2022-10-05T21:57:39.116Z,21.74
2022-10-05T22:02:41.011Z,21.69
2022-10-05T22:07:42.922Z,21.62
2022-10-05T22:12:46.923Z,21.58
2022-10-05T22:17:48.793Z,21.55
2022-10-05T22:22:53.841Z,21.51
2022-10-05T22:27:55.885Z,21.47
2022-10-05T22:32:57.762Z,21.42
2022-10-05T22:38:03.438Z,21.40
2022-10-05T22:43:05.517Z,21.39
2022-10-05T22:48:07.549Z,21.38
2022-10-05T22:53:15.081Z,21.36
2022-10-05T22:58:18.022Z,21.34
2022-10-05T23:03:22.328Z,21.34
2022-10-05T23:08:24.543Z,21.34
2022-10-05T23:13:26.647Z,21.35
2022-10-05T23:18:29.088Z,21.35
2022-10-05T23:23:38.538Z,21.35
2022-10-05T23:28:46.405Z,21.30
2022-10-05T23:33:48.730Z,21.30
2022-10-05T23:38:51.427Z,21.29
2022-10-05T23:43:59.884Z,21.28
2022-10-05T23:49:01.782Z,21.27
2022-10-05T23:54:07.202Z,21.26
2022-10-05T23:59:09.399Z,21.23
